sensor_id;sensor_type;location;lat;lon;timestamp;temperature;humidity
27667;DHT22;15074;50.940;5.282;2022-12-13T00:00:44;-4.10;99.90
27667;DHT22;15074;50.940;5.282;2022-12-13T00:03:10;-4.00;99.90
27667;DHT22;15074;50.940;5.282;2022-12-13T00:05:42;-3.90;99.90
27667;DHT22;15074;50.940;5.282;2022-12-13T00:08:08;-4.00;99.90
27667;DHT22;15074;50.940;5.282;2022-12-13T00:10:34;-4.10;99.90
27667;DHT22;15074;50.940;5.282;2022-12-13T00:13:00;-4.10;99.90
27667;DHT22;15074;50.940;5.282;2022-12-13T00:15:25;-4.00;99.90
27667;DHT22;15074;50.940;5.282;2022-12-13T00:17:51;-3.90;99.90
27667;DHT22;15074;50.940;5.282;2022-12-13T00:20:17;-3.70;99.90
27667;DHT22;15074;50.940;5.282;2022-12-13T00:22:42;-3.60;99.90
27667;DHT22;15074;50.940;5.282;2022-12-13T00:25:08;-3.70;99.90
27667;DHT22;15074;50.940;5.282;2022-12-13T00:27:33;-3.80;99.90
27667;DHT22;15074;50.940;5.282;2022-12-13T00:29:59;-3.90;99.90
27667;DHT22;15074;50.940;5.282;2022-12-13T00:32:25;-3.90;99.90
27667;DHT22;15074;50.940;5.282;2022-12-13T00:34:50;-3.60;99.90
27667;DHT22;15074;50.940;5.282;2022-12-13T00:37:16;-3.60;99.90
27667;DHT22;15074;50.940;5.282;2022-12-13T00:39:41;-3.70;99.90
27667;DHT22;15074;50.940;5.282;2022-12-13T00:42:07;-3.90;99.90
27667;DHT22;15074;50.940;5.282;2022-12-13T00:44:33;-3.90;99.90
27667;DHT22;15074;50.940;5.282;2022-12-13T00:46:58;-3.70;99.90
27667;DHT22;15074;50.940;5.282;2022-12-13T00:49:24;-3.50;99.90
27667;DHT22;15074;50.940;5.282;2022-12-13T00:51:50;-3.30;99.90
27667;DHT22;15074;50.940;5.282;2022-12-13T00:54:16;-3.20;99.90
27667;DHT22;15074;50.940;5.282;2022-12-13T00:56:41;-3.20;99.90
27667;DHT22;15074;50.940;5.282;2022-12-13T00:59:08;-3.30;99.90
27667;DHT22;15074;50.940;5.282;2022-12-13T01:01:35;-3.30;99.90
27667;DHT22;15074;50.940;5.282;2022-12-13T01:04:05;-3.30;99.90
27667;DHT22;15074;50.940;5.282;2022-12-13T01:06:37;-3.20;99.90
27667;DHT22;15074;50.940;5.282;2022-12-13T01:09:05;-3.20;99.90
27667;DHT22;15074;50.940;5.282;2022-12-13T01:11:31;-3.10;99.90
27667;DHT22;15074;50.940;5.282;2022-12-13T01:13:57;-3.20;99.90
27667;DHT22;15074;50.940;5.282;2022-12-13T01:16:22;-3.10;99.90
27667;DHT22;15074;50.940;5.282;2022-12-13T01:18:48;-3.10;99.90
27667;DHT22;15074;50.940;5.282;2022-12-13T01:21:16;-3.20;99.90
27667;DHT22;15074;50.940;5.282;2022-12-13T01:23:43;-3.20;99.90
27667;DHT22;15074;50.940;5.282;2022-12-13T01:26:14;-3.10;99.90
27667;DHT22;15074;50.940;5.282;2022-12-13T01:28:40;-3.10;99.90
27667;DHT22;15074;50.940;5.282;2022-12-13T01:31:08;-3.10;99.90
27667;DHT22;15074;50.940;5.282;2022-12-13T01:33:35;-3.20;99.90
27667;DHT22;15074;50.940;5.282;2022-12-13T01:36:03;-3.10;99.90
27667;DHT22;15074;50.940;5.282;2022-12-13T01:38:29;-3.00;99.90
27667;DHT22;15074;50.940;5.282;2022-12-13T01:40:56;-3.00;99.90
27667;DHT22;15074;50.940;5.282;2022-12-13T01:43:51;-2.90;99.90
27667;DHT22;15074;50.940;5.282;2022-12-13T01:46:15;-3.00;99.90
27667;DHT22;15074;50.940;5.282;2022-12-13T01:51:26;-3.30;99.90
27667;DHT22;15074;50.940;5.282;2022-12-13T01:53:55;-3.20;99.90
27667;DHT22;15074;50.940;5.282;2022-12-13T01:56:28;-3.30;99.90
27667;DHT22;15074;50.940;5.282;2022-12-13T01:58:55;-3.50;99.90
27667;DHT22;15074;50.940;5.282;2022-12-13T02:01:22;-3.30;99.90
27667;DHT22;15074;50.940;5.282;2022-12-13T02:03:48;-3.40;99.90
27667;DHT22;15074;50.940;5.282;2022-12-13T02:06:29;-3.40;99.90
27667;DHT22;15074;50.940;5.282;2022-12-13T02:08:57;-3.50;99.90
27667;DHT22;15074;50.940;5.282;2022-12-13T02:11:24;-3.40;99.90
27667;DHT22;15074;50.940;5.282;2022-12-13T02:13:52;-3.30;99.90
27667;DHT22;15074;50.940;5.282;2022-12-13T02:17:26;-3.20;99.90
27667;DHT22;15074;50.940;5.282;2022-12-13T02:31:16;-3.30;99.90
27667;DHT22;15074;50.940;5.282;2022-12-13T02:34:05;-3.20;99.90
27667;DHT22;15074;50.940;5.282;2022-12-13T02:39:34;-3.20;99.90
27667;DHT22;15074;50.940;5.282;2022-12-13T02:44:57;-3.50;99.90
27667;DHT22;15074;50.940;5.282;2022-12-13T02:47:26;-3.50;99.90
27667;DHT22;15074;50.940;5.282;2022-12-13T02:49:57;-3.60;99.90
27667;DHT22;15074;50.940;5.282;2022-12-13T02:52:28;-3.50;99.90
27667;DHT22;15074;50.940;5.282;2022-12-13T02:54:55;-3.50;99.90
27667;DHT22;15074;50.940;5.282;2022-12-13T02:57:29;-3.40;99.90
27667;DHT22;15074;50.940;5.282;2022-12-13T02:59:56;-3.30;99.90
27667;DHT22;15074;50.940;5.282;2022-12-13T03:08:55;-3.30;99.90
27667;DHT22;15074;50.940;5.282;2022-12-13T03:11:24;-3.30;99.90
27667;DHT22;15074;50.940;5.282;2022-12-13T03:13:56;-3.40;99.90
27667;DHT22;15074;50.940;5.282;2022-12-13T03:16:40;-3.50;99.90
27667;DHT22;15074;50.940;5.282;2022-12-13T03:19:09;-3.70;99.90
27667;DHT22;15074;50.940;5.282;2022-12-13T03:21:42;-3.90;99.90
27667;DHT22;15074;50.940;5.282;2022-12-13T03:24:08;-4.10;99.90
27667;DHT22;15074;50.940;5.282;2022-12-13T03:26:35;-4.10;99.90
27667;DHT22;15074;50.940;5.282;2022-12-13T03:29:01;-4.10;99.90
27667;DHT22;15074;50.940;5.282;2022-12-13T03:31:27;-4.00;99.90
27667;DHT22;15074;50.940;5.282;2022-12-13T03:33:52;-3.90;99.90
27667;DHT22;15074;50.940;5.282;2022-12-13T03:36:18;-4.00;99.90
27667;DHT22;15074;50.940;5.282;2022-12-13T03:38:45;-4.00;99.90
27667;DHT22;15074;50.940;5.282;2022-12-13T03:41:15;-4.00;99.90
27667;DHT22;15074;50.940;5.282;2022-12-13T03:43:41;-3.90;99.90
27667;DHT22;15074;50.940;5.282;2022-12-13T03:46:08;-4.10;99.90
27667;DHT22;15074;50.940;5.282;2022-12-13T03:48:34;-4.20;99.90
27667;DHT22;15074;50.940;5.282;2022-12-13T03:51:00;-4.30;99.90
27667;DHT22;15074;50.940;5.282;2022-12-13T03:53:26;-4.20;99.90
27667;DHT22;15074;50.940;5.282;2022-12-13T03:55:52;-4.10;99.90
27667;DHT22;15074;50.940;5.282;2022-12-13T03:58:17;-4.10;99.90
27667;DHT22;15074;50.940;5.282;2022-12-13T04:00:43;-4.00;99.90
27667;DHT22;15074;50.940;5.282;2022-12-13T04:03:09;-3.90;99.90
27667;DHT22;15074;50.940;5.282;2022-12-13T04:05:36;-3.70;99.90
27667;DHT22;15074;50.940;5.282;2022-12-13T04:08:02;-3.60;99.90
27667;DHT22;15074;50.940;5.282;2022-12-13T04:10:27;-3.60;99.90
27667;DHT22;15074;50.940;5.282;2022-12-13T04:12:53;-3.80;99.90
27667;DHT22;15074;50.940;5.282;2022-12-13T04:15:38;-3.70;99.90
27667;DHT22;15074;50.940;5.282;2022-12-13T04:18:04;-3.60;99.90
27667;DHT22;15074;50.940;5.282;2022-12-13T04:20:30;-4.00;99.90
27667;DHT22;15074;50.940;5.282;2022-12-13T04:22:55;-4.20;99.90
27667;DHT22;15074;50.940;5.282;2022-12-13T04:25:21;-4.10;99.90
27667;DHT22;15074;50.940;5.282;2022-12-13T04:27:47;-4.00;99.90
27667;DHT22;15074;50.940;5.282;2022-12-13T04:30:13;-3.90;99.90
27667;DHT22;15074;50.940;5.282;2022-12-13T04:32:39;-3.80;99.90
27667;DHT22;15074;50.940;5.282;2022-12-13T04:35:05;-3.80;99.90
27667;DHT22;15074;50.940;5.282;2022-12-13T04:37:30;-4.10;99.90
27667;DHT22;15074;50.940;5.282;2022-12-13T04:39:56;-4.20;99.90
27667;DHT22;15074;50.940;5.282;2022-12-13T04:42:22;-4.30;99.90
27667;DHT22;15074;50.940;5.282;2022-12-13T04:44:53;-4.40;99.90
27667;DHT22;15074;50.940;5.282;2022-12-13T04:47:18;-4.50;99.90
27667;DHT22;15074;50.940;5.282;2022-12-13T04:49:44;-4.50;99.90
27667;DHT22;15074;50.940;5.282;2022-12-13T04:52:10;-4.60;99.90
27667;DHT22;15074;50.940;5.282;2022-12-13T04:54:35;-4.70;99.90
27667;DHT22;15074;50.940;5.282;2022-12-13T05:00:23;-4.40;99.90
27667;DHT22;15074;50.940;5.282;2022-12-13T05:02:49;-4.10;99.90
27667;DHT22;15074;50.940;5.282;2022-12-13T05:05:14;-4.00;99.90
27667;DHT22;15074;50.940;5.282;2022-12-13T05:07:40;-4.00;99.90
27667;DHT22;15074;50.940;5.282;2022-12-13T05:10:06;-4.00;99.90
27667;DHT22;15074;50.940;5.282;2022-12-13T05:12:32;-4.10;99.90
27667;DHT22;15074;50.940;5.282;2022-12-13T05:14:57;-4.00;99.90
27667;DHT22;15074;50.940;5.282;2022-12-13T05:17:23;-4.00;99.90
27667;DHT22;15074;50.940;5.282;2022-12-13T05:19:49;-3.90;99.90
27667;DHT22;15074;50.940;5.282;2022-12-13T05:22:14;-3.90;99.90
27667;DHT22;15074;50.940;5.282;2022-12-13T05:24:48;-4.00;99.90
27667;DHT22;15074;50.940;5.282;2022-12-13T05:27:14;-4.00;99.90
27667;DHT22;15074;50.940;5.282;2022-12-13T05:29:39;-3.90;99.90
27667;DHT22;15074;50.940;5.282;2022-12-13T05:32:05;-3.80;99.90
27667;DHT22;15074;50.940;5.282;2022-12-13T05:34:31;-3.70;99.90
27667;DHT22;15074;50.940;5.282;2022-12-13T05:36:56;-3.70;99.90
27667;DHT22;15074;50.940;5.282;2022-12-13T05:39:22;-3.70;99.90
27667;DHT22;15074;50.940;5.282;2022-12-13T05:41:48;-3.90;99.90
27667;DHT22;15074;50.940;5.282;2022-12-13T05:44:13;-4.20;99.90
27667;DHT22;15074;50.940;5.282;2022-12-13T05:46:39;-4.20;99.90
27667;DHT22;15074;50.940;5.282;2022-12-13T05:49:05;-4.20;99.90
27667;DHT22;15074;50.940;5.282;2022-12-13T05:51:31;-4.10;99.90
27667;DHT22;15074;50.940;5.282;2022-12-13T05:53:57;-4.30;99.90
27667;DHT22;15074;50.940;5.282;2022-12-13T05:56:22;-4.50;99.90
27667;DHT22;15074;50.940;5.282;2022-12-13T05:58:48;-4.50;99.90
27667;DHT22;15074;50.940;5.282;2022-12-13T06:01:14;-4.80;99.90
27667;DHT22;15074;50.940;5.282;2022-12-13T06:03:41;-4.90;99.90
27667;DHT22;15074;50.940;5.282;2022-12-13T06:06:09;-5.00;99.90
27667;DHT22;15074;50.940;5.282;2022-12-13T06:08:36;-4.90;99.90
27667;DHT22;15074;50.940;5.282;2022-12-13T06:11:03;-5.10;99.90
27667;DHT22;15074;50.940;5.282;2022-12-13T06:13:32;-5.20;99.90
27667;DHT22;15074;50.940;5.282;2022-12-13T06:16:02;-5.20;99.90
27667;DHT22;15074;50.940;5.282;2022-12-13T06:18:33;-5.20;99.90
27667;DHT22;15074;50.940;5.282;2022-12-13T06:21:04;-5.10;99.90
27667;DHT22;15074;50.940;5.282;2022-12-13T06:23:30;-5.10;99.90
27667;DHT22;15074;50.940;5.282;2022-12-13T06:25:57;-4.90;99.90
27667;DHT22;15074;50.940;5.282;2022-12-13T06:28:22;-4.70;99.90
27667;DHT22;15074;50.940;5.282;2022-12-13T06:30:48;-4.50;99.90
27667;DHT22;15074;50.940;5.282;2022-12-13T06:33:18;-4.80;99.90
27667;DHT22;15074;50.940;5.282;2022-12-13T06:35:44;-5.10;99.90
27667;DHT22;15074;50.940;5.282;2022-12-13T06:38:10;-5.00;99.90
27667;DHT22;15074;50.940;5.282;2022-12-13T06:40:36;-4.70;99.90
27667;DHT22;15074;50.940;5.282;2022-12-13T06:43:03;-4.70;99.90
27667;DHT22;15074;50.940;5.282;2022-12-13T06:45:29;-4.60;99.90
27667;DHT22;15074;50.940;5.282;2022-12-13T06:47:55;-4.60;99.90
27667;DHT22;15074;50.940;5.282;2022-12-13T06:50:22;-4.70;99.90
27667;DHT22;15074;50.940;5.282;2022-12-13T06:52:47;-5.00;99.90
27667;DHT22;15074;50.940;5.282;2022-12-13T06:55:13;-4.90;99.90
27667;DHT22;15074;50.940;5.282;2022-12-13T06:57:39;-4.70;99.90
27667;DHT22;15074;50.940;5.282;2022-12-13T07:00:05;-4.80;99.90
27667;DHT22;15074;50.940;5.282;2022-12-13T07:02:33;-4.70;99.90
27667;DHT22;15074;50.940;5.282;2022-12-13T07:04:59;-4.80;99.90
27667;DHT22;15074;50.940;5.282;2022-12-13T07:07:31;-5.00;99.90
27667;DHT22;15074;50.940;5.282;2022-12-13T07:09:57;-5.10;99.90
27667;DHT22;15074;50.940;5.282;2022-12-13T07:12:23;-5.20;99.90
27667;DHT22;15074;50.940;5.282;2022-12-13T07:14:48;-5.00;99.90
27667;DHT22;15074;50.940;5.282;2022-12-13T07:17:14;-4.90;99.90
27667;DHT22;15074;50.940;5.282;2022-12-13T07:19:40;-4.80;99.90
27667;DHT22;15074;50.940;5.282;2022-12-13T07:22:06;-4.60;99.90
27667;DHT22;15074;50.940;5.282;2022-12-13T07:24:32;-4.40;99.90
27667;DHT22;15074;50.940;5.282;2022-12-13T07:26:58;-4.20;99.90
27667;DHT22;15074;50.940;5.282;2022-12-13T07:29:24;-4.10;99.90
27667;DHT22;15074;50.940;5.282;2022-12-13T07:31:49;-4.30;99.90
27667;DHT22;15074;50.940;5.282;2022-12-13T07:34:15;-4.20;99.90
27667;DHT22;15074;50.940;5.282;2022-12-13T07:36:41;-4.10;99.90
27667;DHT22;15074;50.940;5.282;2022-12-13T07:39:06;-4.10;99.90
27667;DHT22;15074;50.940;5.282;2022-12-13T07:41:32;-4.00;99.90
27667;DHT22;15074;50.940;5.282;2022-12-13T07:43:58;-3.90;99.90
27667;DHT22;15074;50.940;5.282;2022-12-13T07:46:23;-3.90;99.90
27667;DHT22;15074;50.940;5.282;2022-12-13T07:48:49;-3.90;99.90
27667;DHT22;15074;50.940;5.282;2022-12-13T07:51:15;-4.00;99.90
27667;DHT22;15074;50.940;5.282;2022-12-13T07:53:40;-4.00;99.90
27667;DHT22;15074;50.940;5.282;2022-12-13T07:56:08;-4.00;99.90
27667;DHT22;15074;50.940;5.282;2022-12-13T07:58:35;-3.90;99.90
27667;DHT22;15074;50.940;5.282;2022-12-13T08:01:07;-3.80;99.90
27667;DHT22;15074;50.940;5.282;2022-12-13T08:03:33;-3.60;99.90
27667;DHT22;15074;50.940;5.282;2022-12-13T08:06:01;-3.50;99.90
27667;DHT22;15074;50.940;5.282;2022-12-13T08:08:27;-3.30;99.90
27667;DHT22;15074;50.940;5.282;2022-12-13T08:10:52;-3.40;99.90
27667;DHT22;15074;50.940;5.282;2022-12-13T08:13:18;-3.30;99.90
27667;DHT22;15074;50.940;5.282;2022-12-13T08:15:43;-3.20;99.90
27667;DHT22;15074;50.940;5.282;2022-12-13T08:18:09;-3.10;99.90
27667;DHT22;15074;50.940;5.282;2022-12-13T08:20:35;-2.90;99.90
27667;DHT22;15074;50.940;5.282;2022-12-13T08:23:02;-2.80;99.90
27667;DHT22;15074;50.940;5.282;2022-12-13T08:25:28;-2.80;99.90
27667;DHT22;15074;50.940;5.282;2022-12-13T08:27:54;-3.00;99.90
27667;DHT22;15074;50.940;5.282;2022-12-13T08:30:19;-3.00;99.90
27667;DHT22;15074;50.940;5.282;2022-12-13T08:32:47;-3.00;99.90
27667;DHT22;15074;50.940;5.282;2022-12-13T08:35:13;-2.80;99.90
27667;DHT22;15074;50.940;5.282;2022-12-13T08:37:39;-2.60;99.90
27667;DHT22;15074;50.940;5.282;2022-12-13T08:40:05;-2.40;99.90
27667;DHT22;15074;50.940;5.282;2022-12-13T08:42:31;-2.20;99.90
27667;DHT22;15074;50.940;5.282;2022-12-13T08:44:56;-2.30;99.90
27667;DHT22;15074;50.940;5.282;2022-12-13T08:47:24;-2.10;99.90
27667;DHT22;15074;50.940;5.282;2022-12-13T08:49:51;-1.60;99.90
27667;DHT22;15074;50.940;5.282;2022-12-13T08:52:17;-1.30;99.90
27667;DHT22;15074;50.940;5.282;2022-12-13T08:54:43;-1.10;99.90
27667;DHT22;15074;50.940;5.282;2022-12-13T08:57:09;-1.20;99.90
27667;DHT22;15074;50.940;5.282;2022-12-13T08:59:34;-1.60;99.90
27667;DHT22;15074;50.940;5.282;2022-12-13T09:02:00;-1.60;99.90
27667;DHT22;15074;50.940;5.282;2022-12-13T09:04:26;-1.10;99.90
27667;DHT22;15074;50.940;5.282;2022-12-13T09:06:51;-1.00;99.90
27667;DHT22;15074;50.940;5.282;2022-12-13T09:09:17;-0.90;99.90
27667;DHT22;15074;50.940;5.282;2022-12-13T09:11:43;-0.50;99.90
27667;DHT22;15074;50.940;5.282;2022-12-13T09:14:08;-0.10;99.90
27667;DHT22;15074;50.940;5.282;2022-12-13T09:16:35;0.10;99.90
27667;DHT22;15074;50.940;5.282;2022-12-13T09:19:02;0.60;99.90
27667;DHT22;15074;50.940;5.282;2022-12-13T09:21:28;1.20;99.90
27667;DHT22;15074;50.940;5.282;2022-12-13T09:23:54;2.20;99.90
27667;DHT22;15074;50.940;5.282;2022-12-13T09:26:20;2.70;99.90
27667;DHT22;15074;50.940;5.282;2022-12-13T09:28:45;3.50;99.90
27667;DHT22;15074;50.940;5.282;2022-12-13T09:31:17;3.40;99.90
27667;DHT22;15074;50.940;5.282;2022-12-13T09:33:43;3.00;99.90
27667;DHT22;15074;50.940;5.282;2022-12-13T09:36:14;1.50;99.90
27667;DHT22;15074;50.940;5.282;2022-12-13T09:38:41;1.10;99.90
27667;DHT22;15074;50.940;5.282;2022-12-13T09:41:27;1.20;99.90
27667;DHT22;15074;50.940;5.282;2022-12-13T09:43:58;1.40;99.90
27667;DHT22;15074;50.940;5.282;2022-12-13T09:46:33;1.90;99.90
27667;DHT22;15074;50.940;5.282;2022-12-13T09:49:01;3.10;99.90
27667;DHT22;15074;50.940;5.282;2022-12-13T09:51:28;3.70;99.90
27667;DHT22;15074;50.940;5.282;2022-12-13T09:53:55;4.40;99.90
27667;DHT22;15074;50.940;5.282;2022-12-13T09:56:22;6.20;99.90
27667;DHT22;15074;50.940;5.282;2022-12-13T09:58:50;7.50;99.90
27667;DHT22;15074;50.940;5.282;2022-12-13T10:01:16;5.80;99.90
27667;DHT22;15074;50.940;5.282;2022-12-13T10:03:46;5.50;99.90
27667;DHT22;15074;50.940;5.282;2022-12-13T10:06:15;5.40;99.90
27667;DHT22;15074;50.940;5.282;2022-12-13T10:08:48;4.30;99.90
27667;DHT22;15074;50.940;5.282;2022-12-13T10:11:16;3.20;99.90
27667;DHT22;15074;50.940;5.282;2022-12-13T10:19:25;4.80;99.90
27667;DHT22;15074;50.940;5.282;2022-12-13T10:21:52;6.00;99.90
27667;DHT22;15074;50.940;5.282;2022-12-13T10:24:26;5.80;99.90
27667;DHT22;15074;50.940;5.282;2022-12-13T10:27:16;5.30;99.90
27667;DHT22;15074;50.940;5.282;2022-12-13T10:29:56;6.00;99.90
27667;DHT22;15074;50.940;5.282;2022-12-13T10:32:22;7.40;99.90
27667;DHT22;15074;50.940;5.282;2022-12-13T10:34:48;8.00;99.90
27667;DHT22;15074;50.940;5.282;2022-12-13T10:39:49;8.50;99.90
27667;DHT22;15074;50.940;5.282;2022-12-13T10:42:19;9.10;99.90
27667;DHT22;15074;50.940;5.282;2022-12-13T10:44:47;6.60;99.90
27667;DHT22;15074;50.940;5.282;2022-12-13T10:47:21;4.90;99.90
27667;DHT22;15074;50.940;5.282;2022-12-13T10:49:51;4.80;99.90
27667;DHT22;15074;50.940;5.282;2022-12-13T10:54:53;8.50;99.90
27667;DHT22;15074;50.940;5.282;2022-12-13T10:57:19;9.50;99.90
27667;DHT22;15074;50.940;5.282;2022-12-13T10:59:47;9.70;99.90
27667;DHT22;15074;50.940;5.282;2022-12-13T11:02:28;10.00;99.90
27667;DHT22;15074;50.940;5.282;2022-12-13T11:04:55;10.80;99.90
27667;DHT22;15074;50.940;5.282;2022-12-13T11:09:48;9.70;99.90
27667;DHT22;15074;50.940;5.282;2022-12-13T11:12:16;9.90;99.90
27667;DHT22;15074;50.940;5.282;2022-12-13T11:15:02;10.50;99.90
27667;DHT22;15074;50.940;5.282;2022-12-13T11:17:29;8.50;99.90
27667;DHT22;15074;50.940;5.282;2022-12-13T11:19:59;8.00;99.90
27667;DHT22;15074;50.940;5.282;2022-12-13T11:22:33;7.70;99.90
27667;DHT22;15074;50.940;5.282;2022-12-13T11:25:07;8.40;99.90
27667;DHT22;15074;50.940;5.282;2022-12-13T11:30:21;10.00;99.90
27667;DHT22;15074;50.940;5.282;2022-12-13T11:35:35;10.20;99.90
27667;DHT22;15074;50.940;5.282;2022-12-13T11:41:25;10.90;98.80
27667;DHT22;15074;50.940;5.282;2022-12-13T11:47:00;8.30;99.90
27667;DHT22;15074;50.940;5.282;2022-12-13T11:49:41;8.70;99.90
27667;DHT22;15074;50.940;5.282;2022-12-13T11:52:38;8.90;99.90
27667;DHT22;15074;50.940;5.282;2022-12-13T11:55:14;8.80;99.90
27667;DHT22;15074;50.940;5.282;2022-12-13T12:02:52;7.80;99.90
27667;DHT22;15074;50.940;5.282;2022-12-13T12:07:55;8.90;99.90
27667;DHT22;15074;50.940;5.282;2022-12-13T12:13:55;9.10;99.90
27667;DHT22;15074;50.940;5.282;2022-12-13T12:18:58;6.70;99.90
27667;DHT22;15074;50.940;5.282;2022-12-13T12:30:07;4.80;99.90
27667;DHT22;15074;50.940;5.282;2022-12-13T12:32:52;3.60;99.90
27667;DHT22;15074;50.940;5.282;2022-12-13T12:43:28;4.30;99.90
27667;DHT22;15074;50.940;5.282;2022-12-13T12:46:04;4.40;99.90
27667;DHT22;15074;50.940;5.282;2022-12-13T12:54:42;4.80;99.90
27667;DHT22;15074;50.940;5.282;2022-12-13T13:00:09;4.70;99.90
27667;DHT22;15074;50.940;5.282;2022-12-13T13:02:48;4.60;99.90
27667;DHT22;15074;50.940;5.282;2022-12-13T13:07:59;4.20;99.90
27667;DHT22;15074;50.940;5.282;2022-12-13T13:10:28;3.90;99.90
27667;DHT22;15074;50.940;5.282;2022-12-13T13:12:54;3.80;99.90
27667;DHT22;15074;50.940;5.282;2022-12-13T13:17:58;4.10;99.90
27667;DHT22;15074;50.940;5.282;2022-12-13T13:20:25;4.20;99.90
27667;DHT22;15074;50.940;5.282;2022-12-13T13:22:55;4.20;99.90
27667;DHT22;15074;50.940;5.282;2022-12-13T13:25:33;4.00;99.90
27667;DHT22;15074;50.940;5.282;2022-12-13T13:28:03;3.60;99.90
27667;DHT22;15074;50.940;5.282;2022-12-13T13:30:30;3.50;99.90
27667;DHT22;15074;50.940;5.282;2022-12-13T13:32:57;3.40;99.90
27667;DHT22;15074;50.940;5.282;2022-12-13T13:37:56;3.20;99.90
27667;DHT22;15074;50.940;5.282;2022-12-13T13:40:33;3.10;99.90
27667;DHT22;15074;50.940;5.282;2022-12-13T13:48:52;3.30;99.90
27667;DHT22;15074;50.940;5.282;2022-12-13T13:51:54;3.50;99.90
27667;DHT22;15074;50.940;5.282;2022-12-13T14:03:45;2.80;99.90
27667;DHT22;15074;50.940;5.282;2022-12-13T14:12:34;2.40;99.90
27667;DHT22;15074;50.940;5.282;2022-12-13T14:27:04;2.20;99.90
27667;DHT22;15074;50.940;5.282;2022-12-13T14:29:41;2.20;99.90
27667;DHT22;15074;50.940;5.282;2022-12-13T14:32:30;2.10;99.90
27667;DHT22;15074;50.940;5.282;2022-12-13T14:35:00;2.00;99.90
27667;DHT22;15074;50.940;5.282;2022-12-13T14:37:59;1.90;99.90
27667;DHT22;15074;50.940;5.282;2022-12-13T14:42:52;1.40;99.90
27667;DHT22;15074;50.940;5.282;2022-12-13T14:45:31;1.30;99.90
27667;DHT22;15074;50.940;5.282;2022-12-13T14:48:00;1.40;99.90
27667;DHT22;15074;50.940;5.282;2022-12-13T14:52:53;1.60;99.90
27667;DHT22;15074;50.940;5.282;2022-12-13T14:55:31;1.50;99.90
27667;DHT22;15074;50.940;5.282;2022-12-13T14:57:59;1.40;99.90
27667;DHT22;15074;50.940;5.282;2022-12-13T15:00:38;1.20;99.90
27667;DHT22;15074;50.940;5.282;2022-12-13T15:03:05;1.10;99.90
27667;DHT22;15074;50.940;5.282;2022-12-13T15:05:37;1.10;99.90
27667;DHT22;15074;50.940;5.282;2022-12-13T15:08:08;1.00;99.90
27667;DHT22;15074;50.940;5.282;2022-12-13T15:10:43;1.00;99.90
27667;DHT22;15074;50.940;5.282;2022-12-13T15:13:30;0.90;99.90
27667;DHT22;15074;50.940;5.282;2022-12-13T15:16:05;0.80;99.90
27667;DHT22;15074;50.940;5.282;2022-12-13T15:18:33;0.70;99.90
27667;DHT22;15074;50.940;5.282;2022-12-13T15:21:00;0.70;99.90
27667;DHT22;15074;50.940;5.282;2022-12-13T15:23:37;0.70;99.90
27667;DHT22;15074;50.940;5.282;2022-12-13T15:26:16;0.70;99.90
27667;DHT22;15074;50.940;5.282;2022-12-13T15:28:44;0.50;99.90
27667;DHT22;15074;50.940;5.282;2022-12-13T15:31:12;0.30;99.90
27667;DHT22;15074;50.940;5.282;2022-12-13T15:33:38;0.30;99.90
27667;DHT22;15074;50.940;5.282;2022-12-13T15:36:17;0.20;99.90
27667;DHT22;15074;50.940;5.282;2022-12-13T15:41:30;0.10;99.90
27667;DHT22;15074;50.940;5.282;2022-12-13T15:44:01;0.10;99.90
27667;DHT22;15074;50.940;5.282;2022-12-13T15:46:33;0.10;99.90
27667;DHT22;15074;50.940;5.282;2022-12-13T15:52:03;0.10;99.90
27667;DHT22;15074;50.940;5.282;2022-12-13T15:54:29;0.10;99.90
27667;DHT22;15074;50.940;5.282;2022-12-13T16:02:55;0.10;99.90
27667;DHT22;15074;50.940;5.282;2022-12-13T16:05:25;0.10;99.90
27667;DHT22;15074;50.940;5.282;2022-12-13T16:07:55;0.10;99.90
27667;DHT22;15074;50.940;5.282;2022-12-13T16:10:22;0.10;99.90
27667;DHT22;15074;50.940;5.282;2022-12-13T16:12:56;-0.10;99.90
27667;DHT22;15074;50.940;5.282;2022-12-13T16:15:31;0.00;99.90
27667;DHT22;15074;50.940;5.282;2022-12-13T16:18:18;0.00;99.90
27667;DHT22;15074;50.940;5.282;2022-12-13T16:20:44;0.00;99.90
27667;DHT22;15074;50.940;5.282;2022-12-13T16:23:11;0.10;99.90
27667;DHT22;15074;50.940;5.282;2022-12-13T16:25:37;0.00;99.90
27667;DHT22;15074;50.940;5.282;2022-12-13T16:28:03;0.10;99.90
27667;DHT22;15074;50.940;5.282;2022-12-13T16:33:18;0.10;99.90
27667;DHT22;15074;50.940;5.282;2022-12-13T16:35:44;0.10;99.90
27667;DHT22;15074;50.940;5.282;2022-12-13T16:38:11;0.00;99.90
27667;DHT22;15074;50.940;5.282;2022-12-13T16:40:37;-0.10;99.90
27667;DHT22;15074;50.940;5.282;2022-12-13T16:43:05;-0.10;99.90
27667;DHT22;15074;50.940;5.282;2022-12-13T16:45:47;0.00;99.90
27667;DHT22;15074;50.940;5.282;2022-12-13T16:48:16;0.00;99.90
27667;DHT22;15074;50.940;5.282;2022-12-13T16:50:52;-0.10;99.90
27667;DHT22;15074;50.940;5.282;2022-12-13T16:53:18;-0.10;99.90
27667;DHT22;15074;50.940;5.282;2022-12-13T16:55:44;-0.10;99.90
27667;DHT22;15074;50.940;5.282;2022-12-13T16:58:17;-0.10;99.90
27667;DHT22;15074;50.940;5.282;2022-12-13T17:00:44;0.00;99.90
27667;DHT22;15074;50.940;5.282;2022-12-13T17:03:14;-0.10;99.90
27667;DHT22;15074;50.940;5.282;2022-12-13T17:05:41;0.00;99.90
27667;DHT22;15074;50.940;5.282;2022-12-13T17:08:10;0.00;99.90
27667;DHT22;15074;50.940;5.282;2022-12-13T17:10:37;0.00;99.90
27667;DHT22;15074;50.940;5.282;2022-12-13T17:13:03;0.00;99.90
27667;DHT22;15074;50.940;5.282;2022-12-13T17:15:29;0.00;99.90
27667;DHT22;15074;50.940;5.282;2022-12-13T17:17:54;0.10;99.90
27667;DHT22;15074;50.940;5.282;2022-12-13T17:20:20;0.00;99.90
27667;DHT22;15074;50.940;5.282;2022-12-13T17:22:46;0.00;99.90
27667;DHT22;15074;50.940;5.282;2022-12-13T17:25:12;0.00;99.90
27667;DHT22;15074;50.940;5.282;2022-12-13T17:27:38;0.00;99.90
27667;DHT22;15074;50.940;5.282;2022-12-13T17:30:06;0.00;99.90
27667;DHT22;15074;50.940;5.282;2022-12-13T17:32:33;0.00;99.90
27667;DHT22;15074;50.940;5.282;2022-12-13T17:34:59;0.00;99.90
27667;DHT22;15074;50.940;5.282;2022-12-13T17:37:24;0.10;99.90
27667;DHT22;15074;50.940;5.282;2022-12-13T17:39:50;0.20;99.90
27667;DHT22;15074;50.940;5.282;2022-12-13T17:42:16;0.20;99.90
27667;DHT22;15074;50.940;5.282;2022-12-13T17:44:42;0.20;99.90
27667;DHT22;15074;50.940;5.282;2022-12-13T17:47:08;0.30;99.90
27667;DHT22;15074;50.940;5.282;2022-12-13T17:49:33;0.30;99.90
27667;DHT22;15074;50.940;5.282;2022-12-13T17:52:00;0.40;99.90
27667;DHT22;15074;50.940;5.282;2022-12-13T17:54:26;0.30;99.90
27667;DHT22;15074;50.940;5.282;2022-12-13T17:56:53;0.30;99.90
27667;DHT22;15074;50.940;5.282;2022-12-13T17:59:20;0.30;99.90
27667;DHT22;15074;50.940;5.282;2022-12-13T18:01:46;0.30;99.90
27667;DHT22;15074;50.940;5.282;2022-12-13T18:04:13;0.30;99.90
27667;DHT22;15074;50.940;5.282;2022-12-13T18:06:39;0.20;99.90
27667;DHT22;15074;50.940;5.282;2022-12-13T18:09:05;0.10;99.90
27667;DHT22;15074;50.940;5.282;2022-12-13T18:11:31;0.20;99.90
27667;DHT22;15074;50.940;5.282;2022-12-13T18:13:57;0.20;99.90
27667;DHT22;15074;50.940;5.282;2022-12-13T18:16:24;0.20;99.90
27667;DHT22;15074;50.940;5.282;2022-12-13T18:18:53;0.20;99.90
27667;DHT22;15074;50.940;5.282;2022-12-13T18:21:20;0.20;99.90